sensor_id;sensor_type;location;lat;lon;timestamp;P1;durP1;ratioP1;P2;durP2;ratioP2
22026;SDS011;11177;50.966;10.070;2023-12-29T00:02:22;1.25;;;1.15;;
22026;SDS011;11177;50.966;10.070;2023-12-29T00:04:49;1.35;;;1.10;;
22026;SDS011;11177;50.966;10.070;2023-12-29T00:07:17;1.10;;;1.00;;
22026;SDS011;11177;50.966;10.070;2023-12-29T00:09:47;1.20;;;1.10;;
22026;SDS011;11177;50.966;10.070;2023-12-29T00:12:15;1.15;;;0.88;;
22026;SDS011;11177;50.966;10.070;2023-12-29T00:14:42;1.15;;;0.82;;
22026;SDS011;11177;50.966;10.070;2023-12-29T00:17:10;1.23;;;1.10;;
22026;SDS011;11177;50.966;10.070;2023-12-29T00:19:37;2.47;;;1.20;;
22026;SDS011;11177;50.966;10.070;2023-12-29T00:22:04;2.25;;;0.90;;
22026;SDS011;11177;50.966;10.070;2023-12-29T00:24:31;1.40;;;1.02;;
22026;SDS011;11177;50.966;10.070;2023-12-29T00:26:59;1.10;;;1.00;;
22026;SDS011;11177;50.966;10.070;2023-12-29T00:29:26;1.30;;;1.00;;
22026;SDS011;11177;50.966;10.070;2023-12-29T00:31:54;1.77;;;0.93;;
22026;SDS011;11177;50.966;10.070;2023-12-29T00:34:21;2.78;;;1.08;;
22026;SDS011;11177;50.966;10.070;2023-12-29T00:36:49;2.00;;;0.90;;
22026;SDS011;11177;50.966;10.070;2023-12-29T00:39:16;1.10;;;1.00;;
22026;SDS011;11177;50.966;10.070;2023-12-29T00:41:43;0.82;;;0.80;;
22026;SDS011;11177;50.966;10.070;2023-12-29T00:44:10;1.20;;;1.10;;
22026;SDS011;11177;50.966;10.070;2023-12-29T00:46:37;2.85;;;1.30;;
22026;SDS011;11177;50.966;10.070;2023-12-29T00:49:04;3.47;;;1.42;;
22026;SDS011;11177;50.966;10.070;2023-12-29T00:51:32;3.47;;;1.60;;
22026;SDS011;11177;50.966;10.070;2023-12-29T00:53:59;3.85;;;1.50;;
22026;SDS011;11177;50.966;10.070;2023-12-29T00:56:26;1.85;;;1.13;;
22026;SDS011;11177;50.966;10.070;2023-12-29T00:58:52;1.98;;;1.00;;
22026;SDS011;11177;50.966;10.070;2023-12-29T01:01:19;1.70;;;1.00;;
22026;SDS011;11177;50.966;10.070;2023-12-29T01:03:46;1.55;;;1.10;;
22026;SDS011;11177;50.966;10.070;2023-12-29T01:06:14;0.95;;;0.90;;
22026;SDS011;11177;50.966;10.070;2023-12-29T01:08:41;1.40;;;1.00;;
22026;SDS011;11177;50.966;10.070;2023-12-29T01:11:08;1.25;;;0.93;;
22026;SDS011;11177;50.966;10.070;2023-12-29T01:13:34;1.13;;;0.90;;
22026;SDS011;11177;50.966;10.070;2023-12-29T01:16:02;1.33;;;0.75;;
22026;SDS011;11177;50.966;10.070;2023-12-29T01:18:29;2.05;;;0.80;;
22026;SDS011;11177;50.966;10.070;2023-12-29T01:20:58;1.83;;;1.33;;
22026;SDS011;11177;50.966;10.070;2023-12-29T01:23:25;1.15;;;0.90;;
22026;SDS011;11177;50.966;10.070;2023-12-29T01:25:52;1.88;;;1.10;;
22026;SDS011;11177;50.966;10.070;2023-12-29T01:28:19;1.33;;;0.90;;
22026;SDS011;11177;50.966;10.070;2023-12-29T01:30:46;0.80;;;0.70;;
22026;SDS011;11177;50.966;10.070;2023-12-29T01:33:13;1.00;;;0.80;;
22026;SDS011;11177;50.966;10.070;2023-12-29T01:35:41;0.70;;;0.70;;
22026;SDS011;11177;50.966;10.070;2023-12-29T01:38:08;0.80;;;0.70;;
22026;SDS011;11177;50.966;10.070;2023-12-29T01:40:44;0.70;;;0.60;;
22026;SDS011;11177;50.966;10.070;2023-12-29T01:43:12;1.48;;;0.90;;
22026;SDS011;11177;50.966;10.070;2023-12-29T01:45:39;1.00;;;0.90;;
22026;SDS011;11177;50.966;10.070;2023-12-29T01:48:21;0.90;;;0.85;;
22026;SDS011;11177;50.966;10.070;2023-12-29T01:50:50;1.23;;;0.85;;
22026;SDS011;11177;50.966;10.070;2023-12-29T01:53:18;1.30;;;1.17;;
22026;SDS011;11177;50.966;10.070;2023-12-29T01:55:55;1.20;;;1.00;;
22026;SDS011;11177;50.966;10.070;2023-12-29T01:58:24;2.40;;;0.90;;
22026;SDS011;11177;50.966;10.070;2023-12-29T02:00:52;1.10;;;0.80;;
22026;SDS011;11177;50.966;10.070;2023-12-29T02:03:19;1.60;;;1.00;;
22026;SDS011;11177;50.966;10.070;2023-12-29T02:05:47;1.10;;;1.02;;
22026;SDS011;11177;50.966;10.070;2023-12-29T02:08:14;1.77;;;0.80;;
22026;SDS011;11177;50.966;10.070;2023-12-29T02:10:42;1.27;;;1.13;;
22026;SDS011;11177;50.966;10.070;2023-12-29T02:13:09;0.98;;;0.90;;
22026;SDS011;11177;50.966;10.070;2023-12-29T02:15:37;1.70;;;0.90;;
22026;SDS011;11177;50.966;10.070;2023-12-29T02:18:04;1.33;;;0.95;;
22026;SDS011;11177;50.966;10.070;2023-12-29T02:20:33;1.40;;;0.85;;
22026;SDS011;11177;50.966;10.070;2023-12-29T02:23:00;1.65;;;1.10;;
22026;SDS011;11177;50.966;10.070;2023-12-29T02:25:27;1.17;;;1.05;;
22026;SDS011;11177;50.966;10.070;2023-12-29T02:27:57;2.67;;;1.00;;
22026;SDS011;11177;50.966;10.070;2023-12-29T02:30:33;1.65;;;1.10;;
22026;SDS011;11177;50.966;10.070;2023-12-29T02:33:07;1.13;;;1.02;;
22026;SDS011;11177;50.966;10.070;2023-12-29T02:35:39;1.38;;;1.20;;
22026;SDS011;11177;50.966;10.070;2023-12-29T02:38:08;1.77;;;1.27;;
22026;SDS011;11177;50.966;10.070;2023-12-29T02:40:37;2.17;;;1.00;;
22026;SDS011;11177;50.966;10.070;2023-12-29T02:43:04;1.25;;;1.08;;
22026;SDS011;11177;50.966;10.070;2023-12-29T02:45:31;1.67;;;1.10;;
22026;SDS011;11177;50.966;10.070;2023-12-29T02:47:59;3.17;;;1.52;;
22026;SDS011;11177;50.966;10.070;2023-12-29T02:50:29;2.50;;;1.40;;
22026;SDS011;11177;50.966;10.070;2023-12-29T02:52:56;1.75;;;1.15;;
22026;SDS011;11177;50.966;10.070;2023-12-29T02:55:23;1.30;;;1.15;;
22026;SDS011;11177;50.966;10.070;2023-12-29T02:57:50;3.15;;;1.33;;
22026;SDS011;11177;50.966;10.070;2023-12-29T03:00:17;2.40;;;1.30;;
22026;SDS011;11177;50.966;10.070;2023-12-29T03:02:44;2.58;;;1.40;;
22026;SDS011;11177;50.966;10.070;2023-12-29T03:05:12;2.20;;;1.70;;
22026;SDS011;11177;50.966;10.070;2023-12-29T03:07:40;2.35;;;1.70;;
22026;SDS011;11177;50.966;10.070;2023-12-29T03:10:08;3.08;;;1.70;;
22026;SDS011;11177;50.966;10.070;2023-12-29T03:12:35;4.65;;;1.73;;
22026;SDS011;11177;50.966;10.070;2023-12-29T03:15:03;3.28;;;1.50;;
22026;SDS011;11177;50.966;10.070;2023-12-29T03:17:30;2.17;;;1.38;;
22026;SDS011;11177;50.966;10.070;2023-12-29T03:19:57;1.52;;;1.40;;
22026;SDS011;11177;50.966;10.070;2023-12-29T03:22:25;2.17;;;1.35;;
22026;SDS011;11177;50.966;10.070;2023-12-29T03:24:52;2.45;;;1.38;;
22026;SDS011;11177;50.966;10.070;2023-12-29T03:27:19;2.13;;;1.30;;
22026;SDS011;11177;50.966;10.070;2023-12-29T03:29:46;2.83;;;1.30;;
22026;SDS011;11177;50.966;10.070;2023-12-29T03:32:13;3.47;;;1.38;;
22026;SDS011;11177;50.966;10.070;2023-12-29T03:34:42;2.50;;;1.30;;
22026;SDS011;11177;50.966;10.070;2023-12-29T03:37:12;2.88;;;1.25;;
22026;SDS011;11177;50.966;10.070;2023-12-29T03:39:39;3.42;;;1.30;;
22026;SDS011;11177;50.966;10.070;2023-12-29T03:42:10;2.92;;;1.27;;
22026;SDS011;11177;50.966;10.070;2023-12-29T03:44:37;3.17;;;1.45;;
22026;SDS011;11177;50.966;10.070;2023-12-29T03:47:04;1.42;;;1.30;;
22026;SDS011;11177;50.966;10.070;2023-12-29T03:49:32;2.15;;;1.45;;
22026;SDS011;11177;50.966;10.070;2023-12-29T03:52:01;4.00;;;1.55;;
22026;SDS011;11177;50.966;10.070;2023-12-29T03:54:28;2.40;;;1.25;;
22026;SDS011;11177;50.966;10.070;2023-12-29T03:56:55;3.65;;;1.40;;
22026;SDS011;11177;50.966;10.070;2023-12-29T03:59:22;4.03;;;1.35;;
22026;SDS011;11177;50.966;10.070;2023-12-29T04:01:49;3.55;;;1.30;;
22026;SDS011;11177;50.966;10.070;2023-12-29T04:04:16;2.55;;;1.30;;
22026;SDS011;11177;50.966;10.070;2023-12-29T04:06:43;2.58;;;1.20;;
22026;SDS011;11177;50.966;10.070;2023-12-29T04:09:10;1.63;;;1.20;;
22026;SDS011;11177;50.966;10.070;2023-12-29T04:11:37;3.20;;;1.70;;
22026;SDS011;11177;50.966;10.070;2023-12-29T04:14:05;3.42;;;1.40;;
22026;SDS011;11177;50.966;10.070;2023-12-29T04:16:31;2.42;;;1.40;;
22026;SDS011;11177;50.966;10.070;2023-12-29T04:18:59;3.05;;;1.30;;
22026;SDS011;11177;50.966;10.070;2023-12-29T04:21:26;5.22;;;1.55;;
22026;SDS011;11177;50.966;10.070;2023-12-29T04:23:53;3.33;;;1.40;;
22026;SDS011;11177;50.966;10.070;2023-12-29T04:26:20;3.15;;;1.30;;
22026;SDS011;11177;50.966;10.070;2023-12-29T04:28:47;4.47;;;1.50;;
22026;SDS011;11177;50.966;10.070;2023-12-29T04:31:14;4.38;;;1.50;;
22026;SDS011;11177;50.966;10.070;2023-12-29T04:33:42;4.32;;;1.48;;
22026;SDS011;11177;50.966;10.070;2023-12-29T04:36:09;3.08;;;1.20;;
22026;SDS011;11177;50.966;10.070;2023-12-29T04:38:36;2.40;;;1.30;;
22026;SDS011;11177;50.966;10.070;2023-12-29T04:41:03;3.70;;;1.55;;
22026;SDS011;11177;50.966;10.070;2023-12-29T04:43:30;5.55;;;1.38;;
22026;SDS011;11177;50.966;10.070;2023-12-29T04:45:57;2.47;;;1.20;;
22026;SDS011;11177;50.966;10.070;2023-12-29T04:48:24;3.05;;;1.42;;
22026;SDS011;11177;50.966;10.070;2023-12-29T04:50:51;1.52;;;1.20;;
22026;SDS011;11177;50.966;10.070;2023-12-29T04:53:18;2.58;;;1.35;;
22026;SDS011;11177;50.966;10.070;2023-12-29T04:55:48;4.22;;;1.40;;
22026;SDS011;11177;50.966;10.070;2023-12-29T04:58:15;5.55;;;1.40;;
22026;SDS011;11177;50.966;10.070;2023-12-29T05:00:42;3.92;;;1.50;;
22026;SDS011;11177;50.966;10.070;2023-12-29T05:03:11;4.68;;;1.40;;
22026;SDS011;11177;50.966;10.070;2023-12-29T05:05:38;2.28;;;1.33;;
22026;SDS011;11177;50.966;10.070;2023-12-29T05:08:06;3.95;;;1.63;;
22026;SDS011;11177;50.966;10.070;2023-12-29T05:10:33;2.22;;;1.40;;
22026;SDS011;11177;50.966;10.070;2023-12-29T05:13:03;2.03;;;1.30;;
22026;SDS011;11177;50.966;10.070;2023-12-29T05:15:32;2.65;;;1.30;;
22026;SDS011;11177;50.966;10.070;2023-12-29T05:17:59;2.50;;;1.20;;
22026;SDS011;11177;50.966;10.070;2023-12-29T05:20:27;3.13;;;1.20;;
22026;SDS011;11177;50.966;10.070;2023-12-29T05:22:57;4.78;;;1.55;;
22026;SDS011;11177;50.966;10.070;2023-12-29T05:25:24;4.55;;;1.50;;
22026;SDS011;11177;50.966;10.070;2023-12-29T05:27:51;2.95;;;1.40;;
22026;SDS011;11177;50.966;10.070;2023-12-29T05:30:18;2.95;;;1.55;;
22026;SDS011;11177;50.966;10.070;2023-12-29T05:32:45;6.15;;;1.92;;
22026;SDS011;11177;50.966;10.070;2023-12-29T05:35:12;2.53;;;1.67;;
22026;SDS011;11177;50.966;10.070;2023-12-29T05:37:40;3.85;;;1.45;;
22026;SDS011;11177;50.966;10.070;2023-12-29T05:40:08;3.47;;;1.58;;
22026;SDS011;11177;50.966;10.070;2023-12-29T05:42:35;2.78;;;1.40;;
22026;SDS011;11177;50.966;10.070;2023-12-29T05:45:03;1.83;;;1.20;;
22026;SDS011;11177;50.966;10.070;2023-12-29T05:47:34;2.78;;;1.38;;
22026;SDS011;11177;50.966;10.070;2023-12-29T05:50:04;2.20;;;1.35;;
22026;SDS011;11177;50.966;10.070;2023-12-29T05:52:32;4.47;;;1.48;;
22026;SDS011;11177;50.966;10.070;2023-12-29T05:54:58;2.95;;;1.52;;
22026;SDS011;11177;50.966;10.070;2023-12-29T05:57:26;2.53;;;1.45;;
22026;SDS011;11177;50.966;10.070;2023-12-29T05:59:53;4.07;;;1.50;;
22026;SDS011;11177;50.966;10.070;2023-12-29T06:02:20;3.00;;;1.70;;
22026;SDS011;11177;50.966;10.070;2023-12-29T06:04:47;3.05;;;1.73;;
22026;SDS011;11177;50.966;10.070;2023-12-29T06:07:14;1.88;;;1.20;;
22026;SDS011;11177;50.966;10.070;2023-12-29T06:09:41;1.95;;;1.40;;
22026;SDS011;11177;50.966;10.070;2023-12-29T06:12:08;3.40;;;1.35;;
22026;SDS011;11177;50.966;10.070;2023-12-29T06:14:36;4.20;;;1.65;;
22026;SDS011;11177;50.966;10.070;2023-12-29T06:17:03;3.97;;;1.60;;
22026;SDS011;11177;50.966;10.070;2023-12-29T06:19:30;4.88;;;1.63;;
22026;SDS011;11177;50.966;10.070;2023-12-29T06:21:59;4.38;;;1.40;;
22026;SDS011;11177;50.966;10.070;2023-12-29T06:24:26;5.35;;;1.80;;
22026;SDS011;11177;50.966;10.070;2023-12-29T06:26:53;5.13;;;1.45;;
22026;SDS011;11177;50.966;10.070;2023-12-29T06:29:20;3.95;;;1.70;;
22026;SDS011;11177;50.966;10.070;2023-12-29T06:31:47;2.92;;;1.30;;
22026;SDS011;11177;50.966;10.070;2023-12-29T06:34:14;4.60;;;1.40;;
22026;SDS011;11177;50.966;10.070;2023-12-29T06:36:42;2.63;;;1.60;;
22026;SDS011;11177;50.966;10.070;2023-12-29T06:39:09;1.90;;;1.30;;
22026;SDS011;11177;50.966;10.070;2023-12-29T06:41:36;2.47;;;1.27;;
22026;SDS011;11177;50.966;10.070;2023-12-29T06:44:03;3.67;;;1.52;;
22026;SDS011;11177;50.966;10.070;2023-12-29T06:46:30;4.88;;;1.60;;
22026;SDS011;11177;50.966;10.070;2023-12-29T06:48:57;2.90;;;1.50;;
22026;SDS011;11177;50.966;10.070;2023-12-29T06:51:27;4.82;;;1.73;;
22026;SDS011;11177;50.966;10.070;2023-12-29T06:53:54;3.10;;;1.50;;
22026;SDS011;11177;50.966;10.070;2023-12-29T06:56:22;4.63;;;1.70;;
22026;SDS011;11177;50.966;10.070;2023-12-29T06:58:49;4.88;;;2.00;;
22026;SDS011;11177;50.966;10.070;2023-12-29T07:01:16;2.65;;;1.40;;
22026;SDS011;11177;50.966;10.070;2023-12-29T07:03:43;4.43;;;1.90;;
22026;SDS011;11177;50.966;10.070;2023-12-29T07:06:11;6.57;;;1.80;;
22026;SDS011;11177;50.966;10.070;2023-12-29T07:08:38;4.82;;;2.00;;
22026;SDS011;11177;50.966;10.070;2023-12-29T07:11:09;5.07;;;1.92;;
22026;SDS011;11177;50.966;10.070;2023-12-29T07:13:38;4.57;;;1.67;;
22026;SDS011;11177;50.966;10.070;2023-12-29T07:16:05;2.85;;;1.70;;
22026;SDS011;11177;50.966;10.070;2023-12-29T07:18:32;3.67;;;1.60;;
22026;SDS011;11177;50.966;10.070;2023-12-29T07:21:00;3.65;;;1.70;;
22026;SDS011;11177;50.966;10.070;2023-12-29T07:23:27;3.50;;;1.75;;
22026;SDS011;11177;50.966;10.070;2023-12-29T07:25:57;2.10;;;1.50;;
22026;SDS011;11177;50.966;10.070;2023-12-29T07:28:24;4.30;;;1.60;;
22026;SDS011;11177;50.966;10.070;2023-12-29T07:30:51;3.80;;;1.80;;
22026;SDS011;11177;50.966;10.070;2023-12-29T07:33:18;4.97;;;1.88;;
22026;SDS011;11177;50.966;10.070;2023-12-29T07:35:45;4.60;;;1.77;;
22026;SDS011;11177;50.966;10.070;2023-12-29T07:38:12;3.42;;;1.85;;
22026;SDS011;11177;50.966;10.070;2023-12-29T07:40:40;4.65;;;1.70;;
22026;SDS011;11177;50.966;10.070;2023-12-29T07:43:07;6.53;;;2.08;;
22026;SDS011;11177;50.966;10.070;2023-12-29T07:45:34;4.60;;;1.80;;
22026;SDS011;11177;50.966;10.070;2023-12-29T07:48:03;4.38;;;1.95;;
22026;SDS011;11177;50.966;10.070;2023-12-29T07:50:35;3.97;;;1.80;;
22026;SDS011;11177;50.966;10.070;2023-12-29T07:53:02;2.97;;;1.67;;
22026;SDS011;11177;50.966;10.070;2023-12-29T07:55:30;3.90;;;1.60;;
22026;SDS011;11177;50.966;10.070;2023-12-29T07:57:57;4.55;;;1.73;;
22026;SDS011;11177;50.966;10.070;2023-12-29T08:00:25;2.83;;;1.45;;
22026;SDS011;11177;50.966;10.070;2023-12-29T08:02:53;6.22;;;1.65;;
22026;SDS011;11177;50.966;10.070;2023-12-29T08:05:20;5.60;;;1.92;;
22026;SDS011;11177;50.966;10.070;2023-12-29T08:07:47;3.83;;;2.00;;
22026;SDS011;11177;50.966;10.070;2023-12-29T08:10:14;2.75;;;1.67;;
22026;SDS011;11177;50.966;10.070;2023-12-29T08:12:41;2.88;;;1.55;;
22026;SDS011;11177;50.966;10.070;2023-12-29T08:15:09;3.40;;;1.48;;
22026;SDS011;11177;50.966;10.070;2023-12-29T08:17:36;4.07;;;1.60;;
22026;SDS011;11177;50.966;10.070;2023-12-29T08:20:06;2.47;;;1.30;;
22026;SDS011;11177;50.966;10.070;2023-12-29T08:22:33;2.55;;;1.45;;
22026;SDS011;11177;50.966;10.070;2023-12-29T08:25:01;3.15;;;1.60;;
22026;SDS011;11177;50.966;10.070;2023-12-29T08:27:28;2.25;;;1.40;;
22026;SDS011;11177;50.966;10.070;2023-12-29T08:29:56;3.33;;;1.67;;
22026;SDS011;11177;50.966;10.070;2023-12-29T08:32:23;2.75;;;1.40;;
22026;SDS011;11177;50.966;10.070;2023-12-29T08:34:49;2.50;;;1.30;;
22026;SDS011;11177;50.966;10.070;2023-12-29T08:37:17;2.42;;;1.50;;
22026;SDS011;11177;50.966;10.070;2023-12-29T08:39:50;4.43;;;1.50;;
22026;SDS011;11177;50.966;10.070;2023-12-29T08:42:17;2.67;;;1.20;;
22026;SDS011;11177;50.966;10.070;2023-12-29T08:44:44;4.32;;;1.25;;
22026;SDS011;11177;50.966;10.070;2023-12-29T08:47:11;2.80;;;1.38;;
22026;SDS011;11177;50.966;10.070;2023-12-29T08:49:38;1.80;;;1.30;;
22026;SDS011;11177;50.966;10.070;2023-12-29T08:52:05;3.90;;;1.50;;
22026;SDS011;11177;50.966;10.070;2023-12-29T08:54:32;4.07;;;1.20;;
22026;SDS011;11177;50.966;10.070;2023-12-29T08:57:00;2.97;;;1.25;;
22026;SDS011;11177;50.966;10.070;2023-12-29T08:59:27;2.30;;;1.15;;
22026;SDS011;11177;50.966;10.070;2023-12-29T09:01:54;2.65;;;1.30;;
22026;SDS011;11177;50.966;10.070;2023-12-29T09:04:22;2.45;;;1.20;;
22026;SDS011;11177;50.966;10.070;2023-12-29T09:06:49;2.42;;;1.25;;
22026;SDS011;11177;50.966;10.070;2023-12-29T09:09:16;2.17;;;1.35;;
22026;SDS011;11177;50.966;10.070;2023-12-29T09:11:43;3.25;;;1.42;;
22026;SDS011;11177;50.966;10.070;2023-12-29T09:14:11;1.30;;;1.10;;
22026;SDS011;11177;50.966;10.070;2023-12-29T09:16:38;3.22;;;1.60;;
22026;SDS011;11177;50.966;10.070;2023-12-29T09:19:10;2.92;;;1.50;;
22026;SDS011;11177;50.966;10.070;2023-12-29T09:21:39;1.70;;;1.48;;
22026;SDS011;11177;50.966;10.070;2023-12-29T09:24:07;2.70;;;1.50;;
22026;SDS011;11177;50.966;10.070;2023-12-29T09:26:34;2.25;;;1.27;;
22026;SDS011;11177;50.966;10.070;2023-12-29T09:29:01;3.75;;;2.22;;
22026;SDS011;11177;50.966;10.070;2023-12-29T09:31:28;4.93;;;1.83;;
22026;SDS011;11177;50.966;10.070;2023-12-29T09:33:55;2.45;;;1.65;;
22026;SDS011;11177;50.966;10.070;2023-12-29T09:36:23;3.88;;;1.40;;
22026;SDS011;11177;50.966;10.070;2023-12-29T09:38:51;2.28;;;1.77;;
22026;SDS011;11177;50.966;10.070;2023-12-29T09:41:18;2.95;;;1.42;;
22026;SDS011;11177;50.966;10.070;2023-12-29T09:43:50;3.13;;;1.48;;
22026;SDS011;11177;50.966;10.070;2023-12-29T09:46:18;1.73;;;1.30;;
22026;SDS011;11177;50.966;10.070;2023-12-29T09:48:46;1.98;;;1.42;;
22026;SDS011;11177;50.966;10.070;2023-12-29T09:51:14;6.35;;;1.55;;
22026;SDS011;11177;50.966;10.070;2023-12-29T09:53:42;3.30;;;1.50;;
22026;SDS011;11177;50.966;10.070;2023-12-29T09:56:10;4.53;;;1.80;;
22026;SDS011;11177;50.966;10.070;2023-12-29T09:58:37;2.67;;;1.50;;
22026;SDS011;11177;50.966;10.070;2023-12-29T10:01:04;3.78;;;1.80;;
22026;SDS011;11177;50.966;10.070;2023-12-29T10:03:33;3.75;;;1.70;;
22026;SDS011;11177;50.966;10.070;2023-12-29T10:06:00;2.80;;;1.45;;
22026;SDS011;11177;50.966;10.070;2023-12-29T10:08:30;2.70;;;1.73;;
22026;SDS011;11177;50.966;10.070;2023-12-29T10:10:59;8.05;;;2.90;;
22026;SDS011;11177;50.966;10.070;2023-12-29T10:13:28;3.50;;;2.08;;
22026;SDS011;11177;50.966;10.070;2023-12-29T10:19:43;3.60;;;1.75;;
22026;SDS011;11177;50.966;10.070;2023-12-29T10:22:07;1.77;;;1.50;;
22026;SDS011;11177;50.966;10.070;2023-12-29T10:24:38;3.55;;;1.42;;
22026;SDS011;11177;50.966;10.070;2023-12-29T10:27:05;2.20;;;1.50;;
22026;SDS011;11177;50.966;10.070;2023-12-29T10:29:32;3.10;;;2.10;;
22026;SDS011;11177;50.966;10.070;2023-12-29T10:31:59;3.80;;;1.70;;
22026;SDS011;11177;50.966;10.070;2023-12-29T10:34:27;2.33;;;1.35;;
22026;SDS011;11177;50.966;10.070;2023-12-29T10:36:58;4.57;;;2.10;;
22026;SDS011;11177;50.966;10.070;2023-12-29T10:39:26;3.03;;;1.20;;
22026;SDS011;11177;50.966;10.070;2023-12-29T10:42:06;2.88;;;1.23;;
22026;SDS011;11177;50.966;10.070;2023-12-29T10:44:37;2.17;;;1.38;;
22026;SDS011;11177;50.966;10.070;2023-12-29T10:47:08;1.98;;;1.20;;
22026;SDS011;11177;50.966;10.070;2023-12-29T10:49:39;2.58;;;1.40;;
22026;SDS011;11177;50.966;10.070;2023-12-29T10:52:10;3.75;;;1.70;;
22026;SDS011;11177;50.966;10.070;2023-12-29T10:54:44;2.90;;;1.55;;
22026;SDS011;11177;50.966;10.070;2023-12-29T10:57:14;2.17;;;1.35;;
22026;SDS011;11177;50.966;10.070;2023-12-29T10:59:41;3.13;;;1.30;;
22026;SDS011;11177;50.966;10.070;2023-12-29T11:02:11;3.00;;;1.25;;
22026;SDS011;11177;50.966;10.070;2023-12-29T11:04:44;4.50;;;1.42;;
22026;SDS011;11177;50.966;10.070;2023-12-29T11:07:12;2.42;;;1.13;;
22026;SDS011;11177;50.966;10.070;2023-12-29T11:09:40;2.15;;;1.25;;
22026;SDS011;11177;50.966;10.070;2023-12-29T11:12:07;2.25;;;1.10;;
22026;SDS011;11177;50.966;10.070;2023-12-29T11:14:34;2.65;;;1.13;;
22026;SDS011;11177;50.966;10.070;2023-12-29T11:17:02;2.45;;;1.00;;
22026;SDS011;11177;50.966;10.070;2023-12-29T11:19:30;4.15;;;1.30;;
22026;SDS011;11177;50.966;10.070;2023-12-29T11:21:58;4.35;;;1.20;;
22026;SDS011;11177;50.966;10.070;2023-12-29T11:24:27;2.20;;;1.10;;
22026;SDS011;11177;50.966;10.070;2023-12-29T11:27:04;2.25;;;1.30;;
22026;SDS011;11177;50.966;10.070;2023-12-29T11:29:34;2.05;;;1.00;;
22026;SDS011;11177;50.966;10.070;2023-12-29T11:32:02;3.33;;;1.38;;
22026;SDS011;11177;50.966;10.070;2023-12-29T11:34:34;2.08;;;1.13;;
22026;SDS011;11177;50.966;10.070;2023-12-29T11:40:19;1.52;;;0.93;;
22026;SDS011;11177;50.966;10.070;2023-12-29T11:42:52;2.90;;;1.30;;
22026;SDS011;11177;50.966;10.070;2023-12-29T11:45:30;2.13;;;1.23;;
22026;SDS011;11177;50.966;10.070;2023-12-29T11:48:02;2.35;;;1.10;;
22026;SDS011;11177;50.966;10.070;2023-12-29T11:50:32;1.23;;;0.82;;
22026;SDS011;11177;50.966;10.070;2023-12-29T11:53:02;2.03;;;0.80;;
22026;SDS011;11177;50.966;10.070;2023-12-29T11:55:31;3.03;;;1.10;;
22026;SDS011;11177;50.966;10.070;2023-12-29T11:58:02;2.08;;;0.98;;
22026;SDS011;11177;50.966;10.070;2023-12-29T12:00:44;1.73;;;1.05;;
22026;SDS011;11177;50.966;10.070;2023-12-29T12:06:01;3.65;;;0.90;;
22026;SDS011;11177;50.966;10.070;2023-12-29T12:08:37;2.90;;;1.17;;
22026;SDS011;11177;50.966;10.070;2023-12-29T12:14:11;2.90;;;1.40;;
22026;SDS011;11177;50.966;10.070;2023-12-29T12:17:33;3.65;;;1.20;;
22026;SDS011;11177;50.966;10.070;2023-12-29T12:20:03;2.95;;;1.40;;
22026;SDS011;11177;50.966;10.070;2023-12-29T12:22:36;3.50;;;1.30;;
22026;SDS011;11177;50.966;10.070;2023-12-29T12:25:05;2.55;;;1.27;;
22026;SDS011;11177;50.966;10.070;2023-12-29T12:27:36;2.15;;;1.05;;
22026;SDS011;11177;50.966;10.070;2023-12-29T12:30:05;2.40;;;1.10;;
22026;SDS011;11177;50.966;10.070;2023-12-29T12:32:36;1.45;;;0.80;;
22026;SDS011;11177;50.966;10.070;2023-12-29T12:35:03;1.67;;;0.88;;
22026;SDS011;11177;50.966;10.070;2023-12-29T12:37:42;2.38;;;0.85;;
22026;SDS011;11177;50.966;10.070;2023-12-29T12:40:10;1.23;;;0.63;;
22026;SDS011;11177;50.966;10.070;2023-12-29T12:42:39;2.78;;;0.73;;
22026;SDS011;11177;50.966;10.070;2023-12-29T12:45:10;3.80;;;0.82;;
22026;SDS011;11177;50.966;10.070;2023-12-29T12:47:45;1.25;;;0.70;;
22026;SDS011;11177;50.966;10.070;2023-12-29T12:50:13;1.48;;;0.93;;
22026;SDS011;11177;50.966;10.070;2023-12-29T12:52:40;0.73;;;0.60;;
22026;SDS011;11177;50.966;10.070;2023-12-29T12:55:07;2.67;;;0.70;;
22026;SDS011;11177;50.966;10.070;2023-12-29T12:57:35;2.05;;;0.90;;
22026;SDS011;11177;50.966;10.070;2023-12-29T13:00:04;2.40;;;0.80;;
22026;SDS011;11177;50.966;10.070;2023-12-29T13:02:38;3.33;;;1.40;;
22026;SDS011;11177;50.966;10.070;2023-12-29T13:05:15;2.17;;;0.88;;
22026;SDS011;11177;50.966;10.070;2023-12-29T13:07:45;2.15;;;0.60;;
22026;SDS011;11177;50.966;10.070;2023-12-29T13:10:15;1.38;;;0.80;;
22026;SDS011;11177;50.966;10.070;2023-12-29T13:12:54;2.15;;;0.93;;
22026;SDS011;11177;50.966;10.070;2023-12-29T13:15:22;1.55;;;0.80;;
22026;SDS011;11177;50.966;10.070;2023-12-29T13:17:51;1.20;;;0.82;;
22026;SDS011;11177;50.966;10.070;2023-12-29T13:20:20;2.38;;;0.68;;
22026;SDS011;11177;50.966;10.070;2023-12-29T13:22:50;1.95;;;0.90;;
22026;SDS011;11177;50.966;10.070;2023-12-29T13:25:18;1.17;;;0.82;;
22026;SDS011;11177;50.966;10.070;2023-12-29T13:27:48;1.35;;;0.75;;
22026;SDS011;11177;50.966;10.070;2023-12-29T13:30:15;2.38;;;0.60;;
22026;SDS011;11177;50.966;10.070;2023-12-29T13:32:46;1.15;;;0.80;;
22026;SDS011;11177;50.966;10.070;2023-12-29T13:35:21;1.40;;;0.80;;
22026;SDS011;11177;50.966;10.070;2023-12-29T13:40:47;1.35;;;0.70;;
22026;SDS011;11177;50.966;10.070;2023-12-29T13:43:22;2.50;;;0.70;;
22026;SDS011;11177;50.966;10.070;2023-12-29T13:45:53;3.73;;;1.10;;
22026;SDS011;11177;50.966;10.070;2023-12-29T13:48:23;2.33;;;1.02;;
22026;SDS011;11177;50.966;10.070;2023-12-29T13:50:53;2.15;;;1.02;;
22026;SDS011;11177;50.966;10.070;2023-12-29T13:53:21;2.20;;;1.02;;
22026;SDS011;11177;50.966;10.070;2023-12-29T13:56:06;1.33;;;0.80;;
22026;SDS011;11177;50.966;10.070;2023-12-29T13:58:34;2.05;;;0.90;;
22026;SDS011;11177;50.966;10.070;2023-12-29T14:01:08;2.65;;;0.85;;
22026;SDS011;11177;50.966;10.070;2023-12-29T14:06:51;1.88;;;1.30;;
22026;SDS011;11177;50.966;10.070;2023-12-29T14:09:27;3.40;;;1.30;;
22026;SDS011;11177;50.966;10.070;2023-12-29T14:11:54;3.33;;;0.80;;
22026;SDS011;11177;50.966;10.070;2023-12-29T14:14:24;4.00;;;1.20;;
22026;SDS011;11177;50.966;10.070;2023-12-29T14:16:54;2.03;;;1.00;;
22026;SDS011;11177;50.966;10.070;2023-12-29T14:19:23;2.40;;;0.90;;
22026;SDS011;11177;50.966;10.070;2023-12-29T14:21:51;2.33;;;0.85;;
22026;SDS011;11177;50.966;10.070;2023-12-29T14:24:23;1.60;;;0.88;;
22026;SDS011;11177;50.966;10.070;2023-12-29T14:26:53;2.05;;;1.13;;
22026;SDS011;11177;50.966;10.070;2023-12-29T14:29:26;2.10;;;1.58;;
22026;SDS011;11177;50.966;10.070;2023-12-29T14:31:54;3.95;;;1.45;;
22026;SDS011;11177;50.966;10.070;2023-12-29T14:34:24;2.33;;;0.98;;
22026;SDS011;11177;50.966;10.070;2023-12-29T14:36:51;1.02;;;0.80;;
22026;SDS011;11177;50.966;10.070;2023-12-29T14:39:18;0.80;;;0.60;;
22026;SDS011;11177;50.966;10.070;2023-12-29T14:41:46;1.80;;;0.88;;
22026;SDS011;11177;50.966;10.070;2023-12-29T14:44:13;3.17;;;0.90;;
22026;SDS011;11177;50.966;10.070;2023-12-29T14:46:40;1.30;;;0.90;;
22026;SDS011;11177;50.966;10.070;2023-12-29T14:49:07;2.65;;;1.30;;
22026;SDS011;11177;50.966;10.070;2023-12-29T14:51:37;2.78;;;0.82;;
22026;SDS011;11177;50.966;10.070;2023-12-29T14:54:04;1.30;;;0.90;;
22026;SDS011;11177;50.966;10.070;2023-12-29T14:56:31;1.80;;;0.70;;
22026;SDS011;11177;50.966;10.070;2023-12-29T14:58:59;0.65;;;0.57;;
22026;SDS011;11177;50.966;10.070;2023-12-29T15:01:26;1.52;;;0.70;;